createdAt,value
2016-12-14T10:15:37.096Z,22.16
2016-12-14T10:16:17.714Z,22.35
2016-12-14T10:16:58.348Z,22.14
2016-12-14T10:17:39.074Z,22.16
2016-12-14T10:18:19.709Z,22.06
2016-12-14T10:19:00.338Z,22.09
2016-12-14T10:19:41.024Z,21.97
2016-12-14T10:20:21.688Z,21.99
2016-12-14T10:21:02.396Z,21.91
2016-12-14T10:21:43.030Z,21.81
2016-12-14T10:22:23.653Z,21.81
2016-12-14T10:23:04.298Z,21.64
2016-12-14T10:23:44.947Z,21.61
2016-12-14T10:24:25.579Z,21.63
2016-12-14T10:25:06.327Z,21.72
2016-12-14T10:25:46.952Z,21.63
2016-12-14T10:26:27.589Z,21.59
2016-12-14T10:27:08.287Z,21.6
2016-12-14T10:27:48.917Z,21.48
2016-12-14T10:28:29.658Z,21.6
2016-12-14T10:29:10.318Z,21.56
2016-12-14T10:29:50.930Z,21.61
2016-12-14T10:30:31.562Z,21.63
2016-12-14T10:31:12.244Z,21.85
2016-12-14T10:31:52.937Z,21.66
2016-12-14T10:32:33.527Z,21.61
2016-12-14T10:33:14.157Z,21.64
2016-12-14T10:33:54.787Z,21.67
2016-12-14T10:34:35.415Z,21.64
2016-12-14T10:43:03.897Z,21.78
2016-12-14T10:43:44.640Z,21.76
2016-12-14T10:44:25.286Z,21.94
2016-12-14T10:45:05.969Z,21.83
2016-12-14T10:45:46.755Z,21.81
2016-12-14T10:46:27.456Z,21.9
2016-12-14T10:47:08.082Z,21.78
2016-12-14T10:47:48.755Z,21.81
2016-12-14T10:48:29.398Z,21.64
2016-12-14T10:49:10.062Z,21.78
2016-12-14T10:49:50.672Z,22.01
2016-12-14T10:50:31.298Z,22.1
2016-12-14T10:51:11.976Z,22.12
2016-12-14T10:51:52.606Z,22.13
2016-12-14T10:52:33.374Z,22.12
2016-12-14T10:53:14.063Z,22.01
2016-12-14T10:53:54.689Z,21.91
2016-12-14T10:54:35.313Z,21.83
2016-12-14T10:55:15.939Z,21.91
2016-12-14T10:55:56.571Z,21.91
2016-12-14T10:56:37.199Z,21.97
2016-12-14T10:57:17.844Z,22.01
2016-12-14T10:57:58.465Z,22.06
2016-12-14T10:58:39.088Z,22.17
2016-12-14T10:59:19.729Z,22.1
2016-12-14T11:00:00.355Z,22.1
2016-12-14T11:00:40.977Z,22.09
2016-12-14T11:01:21.608Z,22.13
2016-12-14T11:02:02.296Z,22.19
2016-12-14T11:02:42.913Z,22.29
2016-12-14T11:03:23.552Z,22.43
2016-12-14T11:04:04.864Z,22.37
2016-12-14T11:04:45.632Z,22.47
2016-12-14T11:05:26.268Z,22.44
2016-12-14T11:06:06.920Z,22.49
2016-12-14T11:06:47.544Z,22.53
2016-12-14T11:07:28.175Z,22.62
2016-12-14T11:08:08.959Z,22.6
2016-12-14T11:08:50.397Z,22.72
2016-12-14T11:09:31.006Z,22.78
2016-12-14T11:10:11.634Z,22.75
2016-12-14T11:10:52.285Z,22.84
2016-12-14T11:11:32.963Z,22.8
2016-12-14T11:12:13.647Z,22.78
2016-12-14T11:12:54.372Z,22.78
2016-12-14T11:13:34.999Z,22.83
2016-12-14T11:14:15.636Z,22.8
2016-12-14T11:14:56.313Z,22.8
2016-12-14T11:15:36.937Z,22.86
2016-12-14T11:16:17.593Z,22.78
2016-12-14T11:31:40.934Z,22.86
2016-12-14T11:32:21.562Z,22.78
2016-12-14T11:33:02.210Z,22.82
2016-12-14T11:33:42.863Z,22.75
2016-12-14T11:34:23.489Z,22.82
2016-12-14T11:35:04.116Z,22.86
2016-12-14T11:35:44.761Z,22.97
2016-12-14T11:36:25.401Z,22.87
2016-12-14T11:37:06.031Z,23.01
2016-12-14T11:37:46.756Z,22.93
2016-12-14T11:38:27.380Z,23.01
2016-12-14T11:39:08.019Z,23.04
2016-12-14T11:39:48.707Z,23.04
2016-12-14T11:40:29.339Z,22.97
2016-12-14T11:41:09.980Z,22.97
2016-12-14T11:41:50.702Z,22.72
2016-12-14T11:42:31.401Z,22.65
2016-12-14T11:43:12.093Z,22.75
2016-12-14T11:43:52.734Z,22.71
2016-12-14T11:44:33.371Z,22.83
2016-12-14T11:45:14.056Z,22.84
2016-12-14T11:45:54.708Z,22.75
2016-12-14T11:46:35.330Z,22.8
2016-12-14T11:47:16.055Z,22.74
2016-12-14T11:47:56.683Z,22.78
2016-12-14T11:48:37.315Z,22.78
2016-12-14T11:49:17.937Z,22.78
2016-12-14T11:49:58.570Z,22.67
2016-12-14T11:50:39.268Z,22.67
2016-12-14T11:51:19.913Z,22.6
2016-12-14T11:52:00.648Z,22.8
2016-12-14T11:52:41.272Z,22.78
2016-12-14T11:53:21.897Z,22.8
2016-12-14T11:54:02.533Z,22.77
2016-12-14T11:54:43.227Z,22.96
2016-12-14T11:55:23.868Z,22.97
2016-12-14T11:56:04.604Z,22.8
2016-12-14T11:56:45.233Z,22.78
2016-12-14T11:57:25.872Z,22.94
2016-12-14T11:58:06.505Z,23.05
2016-12-14T11:58:47.128Z,22.96
2016-12-14T11:59:27.784Z,22.87
2016-12-14T12:00:08.517Z,22.8
2016-12-14T12:00:49.176Z,22.74
2016-12-14T12:01:29.804Z,22.8
2016-12-14T12:02:10.435Z,22.84
2016-12-14T12:02:51.058Z,22.86
2016-12-14T12:03:31.690Z,22.87
2016-12-14T12:04:12.320Z,22.75
2016-12-14T12:04:52.958Z,22.72
2016-12-14T12:05:33.592Z,22.75
2016-12-14T12:06:14.266Z,22.84
2016-12-14T12:06:54.917Z,22.83
2016-12-14T12:07:35.569Z,22.96
2016-12-14T12:08:16.197Z,22.87
2016-12-14T12:08:56.824Z,22.82
2016-12-14T12:09:37.507Z,22.84
2016-12-14T12:10:18.130Z,22.97
2016-12-14T12:10:58.756Z,22.89
2016-12-14T12:11:39.391Z,22.87
2016-12-14T12:12:20.019Z,22.77
2016-12-14T12:13:00.690Z,22.82
2016-12-14T12:13:41.321Z,22.82
2016-12-14T12:14:21.962Z,22.78
2016-12-14T12:15:02.584Z,22.77
2016-12-14T12:15:43.220Z,22.77
2016-12-14T12:16:23.847Z,22.83
2016-12-14T12:17:04.486Z,22.83
2016-12-14T12:17:45.111Z,22.9
2016-12-14T12:18:25.862Z,22.83
2016-12-14T12:19:06.482Z,22.82
2016-12-14T12:19:47.109Z,22.87
2016-12-14T12:20:27.757Z,22.86
2016-12-14T12:21:08.381Z,22.9
2016-12-14T12:21:49.015Z,22.84
2016-12-14T12:22:29.657Z,22.92
2016-12-14T12:23:10.280Z,22.92
2016-12-14T12:23:50.918Z,22.93
2016-12-14T12:24:31.552Z,22.94
2016-12-14T12:25:12.185Z,22.87
2016-12-14T12:25:52.835Z,22.97
2016-12-14T12:26:33.491Z,22.77
2016-12-14T12:27:14.127Z,22.75
2016-12-14T12:27:54.764Z,22.59
2016-12-14T12:28:35.383Z,22.78
2016-12-14T12:29:16.042Z,22.68
2016-12-14T12:29:56.682Z,22.6
2016-12-14T12:30:37.340Z,22.69
2016-12-14T12:31:17.974Z,22.6
2016-12-14T12:31:58.683Z,22.59
2016-12-14T12:32:39.379Z,22.71
2016-12-14T12:33:20.011Z,22.82
2016-12-14T12:34:00.676Z,22.82
2016-12-14T12:34:41.348Z,22.72
2016-12-14T14:46:52.489Z,23.61
2016-12-14T14:47:33.159Z,23.65
2016-12-14T14:48:13.888Z,23.67
2016-12-14T14:48:54.514Z,23.68
2016-12-14T14:49:35.827Z,23.71
2016-12-14T14:50:16.454Z,23.77
2016-12-14T14:50:57.181Z,23.72
2016-12-14T14:51:37.855Z,23.67
2016-12-14T14:52:18.561Z,23.67
2016-12-14T14:52:59.214Z,23.7
2016-12-14T15:59:55.586Z,22.19
2016-12-14T16:00:36.204Z,22.13
2016-12-14T16:01:16.819Z,22.06
2016-12-14T16:01:57.452Z,22.06
2016-12-14T16:02:38.165Z,22.22
2016-12-14T16:03:18.835Z,22.23
2016-12-14T16:03:59.462Z,22.22
2016-12-14T16:04:40.097Z,22.29
2016-12-14T16:05:20.758Z,22.49
2016-12-14T16:06:01.384Z,22.49
2016-12-14T16:06:42.152Z,22.43
2016-12-14T16:07:22.791Z,22.52
2016-12-14T16:08:03.423Z,22.62
2016-12-14T16:08:44.042Z,22.64
2016-12-14T16:09:24.667Z,22.8
2016-12-14T16:10:05.288Z,22.8
2016-12-14T16:10:45.919Z,22.84
2016-12-14T16:11:26.546Z,23.02
2016-12-14T16:12:07.175Z,23.04
2016-12-14T16:12:47.839Z,23.12
2016-12-14T16:13:28.490Z,23.17
2016-12-14T16:14:09.124Z,23.09
2016-12-14T16:14:49.762Z,23.19
2016-12-14T16:15:30.388Z,23.31
2016-12-14T16:16:11.029Z,23.26
2016-12-14T16:16:51.668Z,23.31
2016-12-14T16:17:32.298Z,23.32
2016-12-14T16:18:12.924Z,23.34
2016-12-14T16:18:53.578Z,23.19
2016-12-14T16:19:34.212Z,23.19
2016-12-14T16:20:14.859Z,23.2
2016-12-14T16:20:55.518Z,23.29
2016-12-14T16:21:36.152Z,23.24
2016-12-14T16:22:16.779Z,23.24
2016-12-14T16:22:57.438Z,23.15
2016-12-14T16:23:38.095Z,23.04
2016-12-14T16:24:18.787Z,23.01
2016-12-14T16:24:59.435Z,22.77
2016-12-14T16:25:40.055Z,22.89
2016-12-14T16:26:20.692Z,22.8
2016-12-14T16:27:01.394Z,22.69
2016-12-14T16:27:42.031Z,22.71
2016-12-14T16:28:22.737Z,22.67
2016-12-14T16:29:03.369Z,22.62
2016-12-14T16:29:44.003Z,22.74
2016-12-14T16:30:24.709Z,22.78
2016-12-14T16:31:05.342Z,22.77
2016-12-14T16:31:45.972Z,22.67
2016-12-14T16:32:26.599Z,22.69
2016-12-14T16:33:07.241Z,22.69
2016-12-14T16:33:47.864Z,22.77
2016-12-14T16:34:28.577Z,22.75
2016-12-14T16:35:09.228Z,22.8
2016-12-14T16:35:49.977Z,22.89
2016-12-14T16:36:30.607Z,22.82
2016-12-14T16:37:11.268Z,22.82
2016-12-14T16:37:51.900Z,22.9
2016-12-14T16:38:32.542Z,22.83
2016-12-14T16:39:13.186Z,22.75
2016-12-14T16:39:53.874Z,22.74
2016-12-14T16:40:34.503Z,22.75
2016-12-14T16:41:15.130Z,22.74
2016-12-14T16:41:55.775Z,22.69
2016-12-14T16:42:36.429Z,22.69
2016-12-14T16:43:17.045Z,22.68
2016-12-14T16:43:57.675Z,22.62
2016-12-14T16:44:38.305Z,22.53
2016-12-14T16:45:18.932Z,22.56
2016-12-14T16:45:59.579Z,22.5
2016-12-14T16:46:40.221Z,22.56
2016-12-14T16:47:20.852Z,22.56
2016-12-14T16:48:01.487Z,22.59
2016-12-14T16:48:42.115Z,22.54
2016-12-14T16:49:22.739Z,22.53
2016-12-14T17:12:14.452Z,22.99
2016-12-14T17:12:55.086Z,23.01
2016-12-14T17:13:35.721Z,22.97
2016-12-14T17:14:16.410Z,23.04
2016-12-14T17:14:57.043Z,23.23
2016-12-14T17:15:37.675Z,23.09
2016-12-14T17:16:18.392Z,22.9
2016-12-14T17:16:59.043Z,22.78
2016-12-14T17:17:39.674Z,22.69
2016-12-14T17:18:20.303Z,22.6
2016-12-14T17:19:00.931Z,22.82
2016-12-14T17:19:41.634Z,22.65
2016-12-14T17:20:22.260Z,22.5
2016-12-14T17:21:02.923Z,22.54
2016-12-14T17:21:43.582Z,22.67
2016-12-14T17:22:24.221Z,22.77
2016-12-14T17:23:04.902Z,22.8
2016-12-14T17:23:45.652Z,22.69
2016-12-14T17:24:26.273Z,22.74
2016-12-14T17:25:06.959Z,22.64
2016-12-14T17:25:47.669Z,22.78
2016-12-14T17:26:28.306Z,22.82
2016-12-14T17:27:08.946Z,22.69
2016-12-14T17:27:49.590Z,22.74
2016-12-14T17:28:30.264Z,22.65
2016-12-14T17:29:10.926Z,22.68
2016-12-14T17:29:51.635Z,22.62
2016-12-14T17:30:32.292Z,22.78
2016-12-14T17:31:12.935Z,22.77
2016-12-14T17:31:53.699Z,22.86
2016-12-14T17:32:34.340Z,22.96
2016-12-14T17:33:14.991Z,22.97
2016-12-14T17:33:55.624Z,22.84
2016-12-14T17:34:36.258Z,22.84
2016-12-14T17:35:16.910Z,22.77
2016-12-14T17:35:57.555Z,22.8
2016-12-14T17:36:38.175Z,22.64
2016-12-14T17:37:19.477Z,22.87
2016-12-14T17:38:00.099Z,22.77
2016-12-14T17:38:40.725Z,22.74
2016-12-14T17:39:21.357Z,22.74
2016-12-14T17:40:01.991Z,22.77
2016-12-14T17:40:42.628Z,22.57
2016-12-14T17:41:23.246Z,22.87
2016-12-14T17:42:03.881Z,22.82
2016-12-14T17:42:44.537Z,22.74
2016-12-14T17:43:25.167Z,22.78
2016-12-14T17:44:05.802Z,22.84
2016-12-14T17:44:46.426Z,22.83
2016-12-14T17:45:27.147Z,22.87
2016-12-14T17:46:07.773Z,23.01
2016-12-14T17:46:48.415Z,22.94
2016-12-14T17:47:29.053Z,22.94
2016-12-14T17:48:09.780Z,22.97
2016-12-14T17:48:50.411Z,23.08
2016-12-14T17:49:31.043Z,23.01
2016-12-14T17:50:11.669Z,23.14
2016-12-14T17:50:52.380Z,23.15
2016-12-14T17:51:33.045Z,23.12
2016-12-14T17:52:13.738Z,23.15
2016-12-14T17:52:54.482Z,23.27
2016-12-14T17:53:35.113Z,23.23
2016-12-14T17:54:15.768Z,23.27
2016-12-14T17:54:56.499Z,23.27
2016-12-14T17:55:37.190Z,23.32
2016-12-14T17:56:17.835Z,23.49
2016-12-14T17:56:58.529Z,23.45
2016-12-14T17:57:39.169Z,23.6
2016-12-14T17:58:19.804Z,23.62
2016-12-14T17:59:00.430Z,23.5
2016-12-14T17:59:41.136Z,23.32
2016-12-14T18:00:21.777Z,23.19
2016-12-14T18:01:02.429Z,23.27
2016-12-14T18:01:43.057Z,23.31
2016-12-14T18:02:23.715Z,23.2
2016-12-14T18:03:04.347Z,23.04
2016-12-14T18:03:44.986Z,23.02
2016-12-14T18:04:25.613Z,23.08
2016-12-14T18:05:06.247Z,23.19
2016-12-14T18:05:46.878Z,23.35
2016-12-14T18:06:27.510Z,23.31
2016-12-14T18:07:08.147Z,23.23
2016-12-14T18:07:48.775Z,23.32
2016-12-14T18:08:29.422Z,23.12
2016-12-14T18:09:10.070Z,22.92
2016-12-14T18:09:50.700Z,22.9
